createdAt,value
2022-12-18T00:01:17.483Z,89.85
2022-12-18T00:03:44.892Z,92.22
2022-12-18T00:06:12.672Z,93.15
2022-12-18T00:08:39.518Z,90.53
2022-12-18T00:11:07.664Z,85.20
2022-12-18T00:13:35.274Z,93.00
2022-12-18T00:16:07.263Z,93.25
2022-12-18T00:18:33.773Z,94.47
2022-12-18T00:21:02.118Z,90.57
2022-12-18T00:23:29.544Z,87.03
2022-12-18T00:25:59.516Z,89.47
2022-12-18T00:28:26.010Z,91.18
2022-12-18T00:30:59.803Z,90.78
2022-12-18T00:33:26.317Z,88.80
2022-12-18T00:35:52.745Z,89.80
2022-12-18T00:38:19.318Z,91.28
2022-12-18T00:40:45.801Z,86.75
2022-12-18T00:43:12.239Z,81.60
2022-12-18T00:45:39.288Z,97.00
2022-12-18T00:48:05.949Z,94.35
2022-12-18T00:50:32.381Z,108.10
2022-12-18T00:52:58.818Z,116.43
2022-12-18T00:55:25.265Z,121.10
2022-12-18T00:57:53.283Z,98.18
2022-12-18T01:00:19.962Z,99.38
2022-12-18T01:02:46.494Z,101.13
2022-12-18T01:05:14.394Z,93.43
2022-12-18T01:07:41.101Z,90.45
2022-12-18T01:10:10.239Z,92.65
2022-12-18T01:12:36.694Z,89.78
2022-12-18T01:15:03.911Z,93.85
2022-12-18T01:17:30.368Z,88.07
2022-12-18T01:19:56.842Z,90.78
2022-12-18T01:22:23.350Z,90.65
2022-12-18T01:24:49.865Z,96.65
2022-12-18T01:27:16.583Z,86.57
2022-12-18T01:29:43.435Z,94.05
2022-12-18T01:32:10.504Z,84.40
2022-12-18T01:34:37.947Z,83.85
2022-12-18T01:37:05.411Z,87.38
2022-12-18T01:39:32.875Z,87.13
2022-12-18T01:42:19.549Z,81.97
2022-12-18T01:45:13.458Z,82.65
2022-12-18T01:47:42.942Z,86.32
2022-12-18T01:50:25.828Z,82.60
2022-12-18T01:53:06.441Z,82.55
2022-12-18T01:55:40.769Z,87.93
2022-12-18T01:58:07.334Z,76.57
2022-12-18T02:00:34.870Z,85.47
2022-12-18T02:03:01.829Z,83.95
2022-12-18T02:05:34.126Z,87.25
2022-12-18T02:08:23.662Z,91.78
2022-12-18T02:10:56.187Z,84.10
2022-12-18T02:13:45.786Z,79.65
2022-12-18T02:16:19.752Z,82.97
2022-12-18T02:18:52.185Z,79.10
2022-12-18T02:21:36.780Z,75.28
2022-12-18T02:24:51.138Z,59.97
2022-12-18T02:27:18.564Z,75.53
2022-12-18T02:29:52.915Z,79.07
2022-12-18T02:32:40.430Z,82.82
2022-12-18T02:35:11.661Z,91.53
2022-12-18T02:37:41.034Z,82.57
2022-12-18T02:40:09.403Z,75.10
2022-12-18T02:42:35.932Z,80.15
2022-12-18T02:45:02.380Z,80.80
2022-12-18T02:47:33.744Z,78.57
2022-12-18T02:50:14.980Z,77.57
2022-12-18T02:53:03.325Z,80.72
2022-12-18T02:55:38.774Z,79.85
2022-12-18T02:58:16.489Z,80.53
2022-12-18T03:00:55.844Z,80.78
2022-12-18T03:03:27.887Z,85.57
2022-12-18T03:06:00.996Z,79.22
2022-12-18T03:08:30.989Z,79.00
2022-12-18T03:11:10.133Z,73.95
2022-12-18T03:13:50.051Z,85.10
2022-12-18T03:16:23.300Z,73.10
2022-12-18T03:18:58.907Z,76.57
2022-12-18T03:21:38.346Z,74.47
2022-12-18T03:24:08.566Z,74.35
2022-12-18T03:26:41.113Z,75.22
2022-12-18T03:29:14.051Z,98.18
2022-12-18T03:31:46.634Z,80.40
2022-12-18T03:34:25.258Z,77.80
2022-12-18T03:36:51.704Z,79.60
2022-12-18T03:39:18.218Z,73.90
2022-12-18T03:41:52.078Z,76.35
2022-12-18T03:44:47.850Z,77.87
2022-12-18T03:47:42.297Z,79.53
2022-12-18T03:50:21.695Z,73.35
2022-12-18T03:53:03.802Z,69.13
2022-12-18T03:55:34.929Z,74.13
2022-12-18T03:58:04.431Z,74.95
2022-12-18T04:00:32.576Z,67.57
2022-12-18T04:03:02.768Z,78.28
2022-12-18T04:05:30.736Z,74.28
2022-12-18T04:07:58.124Z,69.38
2022-12-18T04:10:24.728Z,73.28
2022-12-18T04:12:51.209Z,74.55
2022-12-18T04:15:17.905Z,77.93
2022-12-18T04:17:49.591Z,72.53
2022-12-18T04:20:16.755Z,65.95
2022-12-18T04:22:44.029Z,74.50
2022-12-18T04:25:13.922Z,70.20
2022-12-18T04:27:40.381Z,78.40
2022-12-18T04:30:07.567Z,69.45
2022-12-18T04:32:35.180Z,73.20
2022-12-18T04:35:01.698Z,65.90
2022-12-18T04:37:28.092Z,71.82
2022-12-18T04:39:54.594Z,71.40
2022-12-18T04:42:21.141Z,75.45
2022-12-18T04:44:47.643Z,75.10
2022-12-18T04:47:14.173Z,69.88
2022-12-18T04:49:40.672Z,72.20
2022-12-18T04:52:10.496Z,76.30
2022-12-18T04:54:36.957Z,68.75
2022-12-18T04:57:03.388Z,73.90
2022-12-18T04:59:30.109Z,71.78
2022-12-18T05:01:56.693Z,75.28
2022-12-18T05:04:23.348Z,73.93
2022-12-18T05:06:49.764Z,69.32
2022-12-18T05:09:16.201Z,73.10
2022-12-18T05:11:43.078Z,75.13
2022-12-18T05:14:09.519Z,70.88
2022-12-18T05:16:35.980Z,70.60
2022-12-18T05:19:02.469Z,71.45
2022-12-18T05:21:28.887Z,67.03
2022-12-18T05:23:55.359Z,69.35
2022-12-18T05:26:21.791Z,67.88
2022-12-18T05:28:48.222Z,64.28
2022-12-18T05:31:15.034Z,72.10
2022-12-18T05:33:42.157Z,74.45
2022-12-18T05:36:10.149Z,76.38
2022-12-18T05:38:39.207Z,72.57
2022-12-18T05:41:06.306Z,62.85
2022-12-18T05:43:35.352Z,66.10
2022-12-18T05:46:12.376Z,64.85
2022-12-18T05:48:38.878Z,63.42
2022-12-18T05:51:08.039Z,69.05
2022-12-18T05:53:34.723Z,66.72
2022-12-18T05:56:03.822Z,65.70
2022-12-18T05:58:30.874Z,62.10
2022-12-18T06:00:57.706Z,69.60
2022-12-18T06:03:29.288Z,63.92
2022-12-18T06:05:58.701Z,60.63
2022-12-18T06:08:25.151Z,65.47
2022-12-18T06:10:56.052Z,66.35
2022-12-18T06:13:22.690Z,64.93
2022-12-18T06:15:49.170Z,56.58
2022-12-18T06:18:15.710Z,70.43
2022-12-18T06:20:42.417Z,58.92
2022-12-18T06:23:09.517Z,62.88
2022-12-18T06:25:39.412Z,63.92
2022-12-18T06:28:06.212Z,60.17
2022-12-18T06:30:32.695Z,60.30
2022-12-18T06:32:59.169Z,59.28
2022-12-18T06:35:25.653Z,59.13
2022-12-18T06:37:52.100Z,57.50
2022-12-18T06:40:19.037Z,55.15
2022-12-18T06:42:45.597Z,60.63
2022-12-18T06:45:12.510Z,58.05
2022-12-18T06:47:39.064Z,61.67
2022-12-18T06:50:06.515Z,60.78
2022-12-18T06:52:33.819Z,58.35
2022-12-18T06:55:00.967Z,58.38
2022-12-18T06:57:27.417Z,53.83
2022-12-18T06:59:53.857Z,57.05
2022-12-18T07:02:20.415Z,62.70
2022-12-18T07:04:47.326Z,55.28
2022-12-18T07:07:13.747Z,56.95
2022-12-18T07:09:40.186Z,60.97
2022-12-18T07:12:07.759Z,55.63
2022-12-18T07:14:34.550Z,55.97
2022-12-18T07:17:01.256Z,54.55
2022-12-18T07:19:28.027Z,55.53
2022-12-18T07:21:55.640Z,58.85
2022-12-18T07:24:22.116Z,61.78
2022-12-18T07:26:48.866Z,57.50
2022-12-18T07:29:15.359Z,51.47
2022-12-18T07:31:41.956Z,60.25
2022-12-18T07:34:13.501Z,59.33
2022-12-18T07:36:40.289Z,53.30
2022-12-18T07:39:07.078Z,57.45
2022-12-18T07:41:33.886Z,60.90
2022-12-18T07:44:00.341Z,52.53
2022-12-18T07:46:26.752Z,62.15
2022-12-18T07:48:53.217Z,60.22
2022-12-18T07:51:19.897Z,52.83
2022-12-18T07:53:46.888Z,53.47
2022-12-18T07:56:26.525Z,57.30
2022-12-18T07:58:54.637Z,56.20
2022-12-18T08:01:21.341Z,52.00
2022-12-18T08:03:48.198Z,56.03
2022-12-18T08:06:15.065Z,56.55
2022-12-18T08:08:43.165Z,55.38
2022-12-18T08:11:09.680Z,57.88
2022-12-18T08:13:36.326Z,57.28
2022-12-18T08:16:06.370Z,55.92
2022-12-18T08:18:37.969Z,55.17
2022-12-18T08:21:15.946Z,59.13
2022-12-18T08:23:43.599Z,59.75
2022-12-18T08:26:12.304Z,57.90
2022-12-18T08:28:38.841Z,55.63
2022-12-18T08:31:05.661Z,57.55
2022-12-18T08:33:33.377Z,54.35
2022-12-18T08:36:01.209Z,55.58
2022-12-18T08:38:27.747Z,56.55
2022-12-18T08:41:01.758Z,54.08
2022-12-18T08:43:46.839Z,54.70
2022-12-18T08:46:16.403Z,51.30
2022-12-18T08:48:42.887Z,50.63
2022-12-18T08:51:10.605Z,53.22
2022-12-18T08:53:38.687Z,58.00
2022-12-18T08:56:06.373Z,51.83
2022-12-18T08:58:32.835Z,50.45
2022-12-18T09:01:07.305Z,46.40
2022-12-18T09:03:34.011Z,56.80
2022-12-18T09:06:00.641Z,52.67
2022-12-18T09:08:27.712Z,56.53
2022-12-18T09:10:54.183Z,52.85
2022-12-18T09:13:21.302Z,54.38
2022-12-18T09:15:57.197Z,50.75
2022-12-18T09:18:24.766Z,48.65
2022-12-18T09:20:53.318Z,49.25
2022-12-18T09:23:20.480Z,51.47
2022-12-18T09:25:47.020Z,48.95
2022-12-18T09:28:16.313Z,51.08
2022-12-18T09:30:48.458Z,54.30
2022-12-18T09:33:15.243Z,50.13
2022-12-18T09:35:43.866Z,55.45
2022-12-18T09:38:19.019Z,48.05
2022-12-18T09:40:49.484Z,52.08
2022-12-18T09:43:28.193Z,53.55
2022-12-18T09:46:07.327Z,50.67
2022-12-18T09:48:39.110Z,48.40
2022-12-18T09:51:19.533Z,42.95
2022-12-18T09:53:52.822Z,45.55
2022-12-18T09:56:23.656Z,46.38
2022-12-18T09:59:01.031Z,45.88
2022-12-18T10:01:38.952Z,70.35
2022-12-18T10:04:10.631Z,110.38
2022-12-18T10:06:47.733Z,78.28
2022-12-18T10:09:34.850Z,47.90
2022-12-18T10:12:23.170Z,46.17
2022-12-18T10:15:12.114Z,43.72
2022-12-18T10:17:41.204Z,48.75
2022-12-18T10:20:40.682Z,40.40
2022-12-18T10:23:15.812Z,43.10
2022-12-18T10:25:42.216Z,39.17
2022-12-18T10:28:13.707Z,33.17
2022-12-18T10:30:41.502Z,33.22
2022-12-18T10:33:19.723Z,37.22
2022-12-18T10:35:48.023Z,28.65
2022-12-18T10:38:17.551Z,31.70
2022-12-18T10:40:51.740Z,32.20
2022-12-18T10:43:26.141Z,34.90
2022-12-18T10:46:18.353Z,34.70
2022-12-18T10:48:47.712Z,30.35
2022-12-18T10:51:34.548Z,30.55
2022-12-18T10:54:02.329Z,29.00
2022-12-18T10:56:32.206Z,32.83
2022-12-18T10:59:07.492Z,32.17
2022-12-18T11:02:24.040Z,30.80
2022-12-18T11:07:18.219Z,31.58
2022-12-18T11:09:44.656Z,30.38
2022-12-18T11:12:11.392Z,31.08
2022-12-18T11:14:48.110Z,31.73
2022-12-18T11:17:28.328Z,29.02
2022-12-18T11:20:10.646Z,29.92
2022-12-18T11:22:39.127Z,25.42
2022-12-18T11:25:35.366Z,28.48
2022-12-18T11:28:25.942Z,27.33
2022-12-18T11:31:16.932Z,31.52
2022-12-18T11:34:05.153Z,29.83
2022-12-18T11:36:39.690Z,31.02
2022-12-18T11:39:50.736Z,29.42
2022-12-18T11:42:25.186Z,27.23
2022-12-18T11:45:28.890Z,26.65
2022-12-18T11:48:01.871Z,31.08
2022-12-18T11:50:37.877Z,30.88
2022-12-18T11:53:06.225Z,28.88
2022-12-18T11:56:07.016Z,29.13
2022-12-18T11:58:51.670Z,26.38
2022-12-18T12:01:46.932Z,27.23
2022-12-18T12:04:25.273Z,30.80
2022-12-18T12:07:10.774Z,34.13
2022-12-18T12:09:45.720Z,29.85
2022-12-18T12:12:49.118Z,30.67
2022-12-18T12:15:36.804Z,28.30
2022-12-18T12:18:33.397Z,32.58
2022-12-18T12:21:02.953Z,29.92
2022-12-18T12:24:00.714Z,30.80
2022-12-18T12:26:46.342Z,24.10
2022-12-18T12:31:57.073Z,28.38
2022-12-18T12:34:43.131Z,26.73
2022-12-18T12:37:33.725Z,27.50
2022-12-18T12:40:15.384Z,26.40
2022-12-18T12:43:15.061Z,30.27
2022-12-18T12:46:02.227Z,28.65
2022-12-18T12:48:44.616Z,32.08
2022-12-18T12:51:29.026Z,31.73
2022-12-18T12:53:58.268Z,30.45
2022-12-18T12:56:31.846Z,31.13
2022-12-18T12:59:13.337Z,31.60
2022-12-18T13:01:49.709Z,30.45
2022-12-18T13:04:33.747Z,28.52
2022-12-18T13:07:28.698Z,26.80
2022-12-18T13:10:15.468Z,30.98
2022-12-18T13:12:56.733Z,30.00
2022-12-18T13:15:26.320Z,26.35
2022-12-18T13:18:11.019Z,33.80
2022-12-18T13:20:40.906Z,31.48
2022-12-18T13:23:26.064Z,28.90
2022-12-18T13:25:53.124Z,31.40
2022-12-18T13:28:26.954Z,32.47
2022-12-18T13:30:58.409Z,29.42
2022-12-18T13:34:16.605Z,30.98
2022-12-18T13:36:35.296Z,27.95
2022-12-18T13:42:38.090Z,31.58
2022-12-18T13:45:42.764Z,30.85
2022-12-18T13:48:21.848Z,33.78
2022-12-18T13:50:53.396Z,32.25
2022-12-18T13:53:28.778Z,38.42
2022-12-18T13:55:56.043Z,31.50
2022-12-18T13:58:23.356Z,30.10
2022-12-18T14:00:49.955Z,31.63
2022-12-18T14:03:24.215Z,34.83
2022-12-18T14:05:57.834Z,33.42
2022-12-18T14:08:27.622Z,30.10
2022-12-18T14:10:54.300Z,33.42
2022-12-18T14:13:24.512Z,27.33
2022-12-18T14:15:52.141Z,31.27
2022-12-18T14:18:28.935Z,30.17
2022-12-18T14:21:01.355Z,34.03
2022-12-18T14:23:38.900Z,29.67
2022-12-18T14:26:30.378Z,35.88
2022-12-18T14:28:58.277Z,34.53
2022-12-18T14:31:27.380Z,30.65
2022-12-18T14:33:54.757Z,28.90
2022-12-18T14:36:26.814Z,31.80
2022-12-18T14:38:58.636Z,34.92
2022-12-18T14:41:26.834Z,31.27
2022-12-18T14:43:55.210Z,37.20
2022-12-18T14:46:34.006Z,35.13
2022-12-18T14:49:04.462Z,34.78
2022-12-18T14:51:34.036Z,32.72
2022-12-18T14:54:04.737Z,32.88
2022-12-18T14:56:37.384Z,34.22
2022-12-18T14:59:06.805Z,27.67
2022-12-18T15:01:35.459Z,34.90
2022-12-18T15:04:03.033Z,37.38
2022-12-18T15:06:41.035Z,37.58
2022-12-18T15:09:24.459Z,41.83
2022-12-18T15:11:57.555Z,47.45
2022-12-18T15:14:42.800Z,40.33
2022-12-18T15:17:20.164Z,37.45
2022-12-18T15:19:48.227Z,42.58
2022-12-18T15:22:26.089Z,45.65
2022-12-18T15:24:52.979Z,40.08
2022-12-18T15:27:38.689Z,42.55
2022-12-18T15:30:11.209Z,38.70
2022-12-18T15:32:38.955Z,40.65
2022-12-18T15:35:11.912Z,37.20
2022-12-18T15:37:41.795Z,41.42
2022-12-18T15:40:14.284Z,41.05
2022-12-18T15:42:59.313Z,34.17
2022-12-18T15:45:25.783Z,32.22
2022-12-18T15:47:52.323Z,43.08
2022-12-18T15:50:18.936Z,31.15
2022-12-18T15:52:48.311Z,32.55
2022-12-18T15:55:39.100Z,34.35
2022-12-18T15:58:09.050Z,35.13
2022-12-18T16:00:37.502Z,31.75
2022-12-18T16:03:05.494Z,26.67
2022-12-18T16:05:33.116Z,32.25
2022-12-18T16:08:00.783Z,26.67
2022-12-18T16:10:27.392Z,29.90
2022-12-18T16:12:53.874Z,26.88
2022-12-18T16:15:24.563Z,27.60
2022-12-18T16:17:52.575Z,29.95
2022-12-18T16:20:21.999Z,31.45
2022-12-18T16:22:50.340Z,17.17
2022-12-18T16:25:22.702Z,27.10
2022-12-18T16:27:49.602Z,30.55
2022-12-18T16:30:22.508Z,31.95
2022-12-18T16:32:51.061Z,32.67
2022-12-18T16:35:17.997Z,16.13
2022-12-18T16:37:44.792Z,15.23
2022-12-18T16:40:14.427Z,29.95
2022-12-18T16:42:42.786Z,28.88
2022-12-18T16:45:11.601Z,30.20
2022-12-18T16:47:38.871Z,30.75
2022-12-18T16:50:06.165Z,30.25
2022-12-18T16:52:32.747Z,34.88
2022-12-18T16:54:59.361Z,34.72
2022-12-18T16:57:26.054Z,27.15
2022-12-18T16:59:53.135Z,30.95
2022-12-18T17:02:23.515Z,30.48
2022-12-18T17:04:50.814Z,30.58
2022-12-18T17:07:17.287Z,32.92
2022-12-18T17:09:43.759Z,26.30
2022-12-18T17:12:10.615Z,28.35
2022-12-18T17:14:37.387Z,31.00
2022-12-18T17:17:21.448Z,35.80
2022-12-18T17:19:48.669Z,34.63
2022-12-18T17:22:15.192Z,32.63
2022-12-18T17:24:41.679Z,31.20
2022-12-18T17:27:08.882Z,26.17
2022-12-18T17:29:35.479Z,28.45
2022-12-18T17:32:01.971Z,31.10
2022-12-18T17:34:30.504Z,17.95
2022-12-18T17:36:57.682Z,34.97
2022-12-18T17:39:24.190Z,31.70
2022-12-18T17:41:50.839Z,32.20
2022-12-18T17:44:17.868Z,37.75
2022-12-18T17:46:46.342Z,37.17
2022-12-18T17:49:14.015Z,37.15
2022-12-18T17:51:42.789Z,30.27
2022-12-18T17:54:09.835Z,37.85
2022-12-18T17:56:36.459Z,36.80
2022-12-18T17:59:03.060Z,33.75
2022-12-18T18:01:29.730Z,31.15
2022-12-18T18:03:56.437Z,34.20
2022-12-18T18:06:24.263Z,36.10
2022-12-18T18:08:51.073Z,36.50
2022-12-18T18:11:39.153Z,34.20
2022-12-18T18:14:11.352Z,50.72
2022-12-18T18:16:41.439Z,34.35
2022-12-18T18:19:10.942Z,35.28
2022-12-18T18:21:43.207Z,39.88
2022-12-18T18:24:12.709Z,36.03
2022-12-18T18:26:41.429Z,23.40
2022-12-18T18:29:12.081Z,37.83
2022-12-18T18:31:41.157Z,21.75
2022-12-18T18:34:14.948Z,19.00
2022-12-18T18:36:42.031Z,17.63
2022-12-18T18:39:09.082Z,36.70
2022-12-18T18:41:36.911Z,23.17
2022-12-18T18:44:03.665Z,35.97
2022-12-18T18:46:30.486Z,28.50
2022-12-18T18:48:57.017Z,24.75
2022-12-18T18:51:23.951Z,32.55
2022-12-18T18:53:52.275Z,29.60
2022-12-18T18:59:08.814Z,19.20
2022-12-18T19:01:35.390Z,18.35
2022-12-18T19:04:04.685Z,24.15
2022-12-18T19:06:31.584Z,20.17
2022-12-18T19:09:02.221Z,28.33
2022-12-18T19:11:48.583Z,37.08
2022-12-18T19:14:16.147Z,17.77
2022-12-18T19:16:45.440Z,40.70
2022-12-18T19:19:13.064Z,13.85
2022-12-18T19:21:39.772Z,21.00
2022-12-18T19:24:06.598Z,33.30
2022-12-18T19:26:33.082Z,20.55
2022-12-18T19:29:07.905Z,37.42
2022-12-18T19:31:36.515Z,35.95
2022-12-18T19:34:06.555Z,37.47
2022-12-18T19:36:33.982Z,43.95
2022-12-18T19:39:08.158Z,36.00
2022-12-18T19:41:34.841Z,46.17
2022-12-18T19:44:01.626Z,46.50
2022-12-18T19:46:34.260Z,43.95
2022-12-18T19:49:00.812Z,40.03
2022-12-18T19:51:29.146Z,21.80
2022-12-18T19:53:59.270Z,20.60
2022-12-18T19:56:29.885Z,22.13
2022-12-18T19:58:56.797Z,40.50
2022-12-18T20:01:25.247Z,24.83
2022-12-18T20:03:55.492Z,41.65
2022-12-18T20:06:29.109Z,38.70
2022-12-18T20:09:00.289Z,21.58
2022-12-18T20:11:31.560Z,42.65
2022-12-18T20:14:01.595Z,41.13
2022-12-18T20:16:28.399Z,46.08
2022-12-18T20:18:56.468Z,40.10
2022-12-18T20:21:23.672Z,42.90
2022-12-18T20:23:50.139Z,45.60
2022-12-18T20:26:16.666Z,44.15
2022-12-18T20:28:43.090Z,44.60
2022-12-18T20:31:10.569Z,8.70
2022-12-18T20:33:40.455Z,28.52
2022-12-18T20:36:12.426Z,39.50
2022-12-18T20:38:39.560Z,44.33
2022-12-18T20:41:12.241Z,34.97
2022-12-18T20:43:39.752Z,33.65
2022-12-18T20:46:08.834Z,44.15
2022-12-18T20:48:35.874Z,43.13
2022-12-18T20:51:05.724Z,42.67
2022-12-18T20:53:35.885Z,32.25
2022-12-18T20:56:12.353Z,41.95
2022-12-18T20:58:39.012Z,7.80
2022-12-18T21:01:16.276Z,28.30
2022-12-18T21:03:44.275Z,39.53
2022-12-18T21:06:10.863Z,42.35
2022-12-18T21:08:37.874Z,40.03
2022-12-18T21:11:34.727Z,44.47
2022-12-18T21:14:03.421Z,34.95
2022-12-18T21:16:30.129Z,29.52
2022-12-18T21:18:56.708Z,16.88
2022-12-18T21:21:26.988Z,39.90
2022-12-18T21:23:54.241Z,17.27
2022-12-18T21:26:23.184Z,47.67
2022-12-18T21:28:55.441Z,42.08
2022-12-18T21:31:24.025Z,46.92
2022-12-18T21:33:51.924Z,42.72
2022-12-18T21:36:20.442Z,43.42
2022-12-18T21:38:46.924Z,49.28
2022-12-18T21:41:36.289Z,45.10
2022-12-18T21:44:05.647Z,43.28
2022-12-18T21:46:37.424Z,52.17
2022-12-18T21:49:05.302Z,41.05
2022-12-18T21:51:32.433Z,51.53
2022-12-18T21:53:59.718Z,47.28
2022-12-18T21:56:48.471Z,31.05
2022-12-18T21:59:21.253Z,46.00
2022-12-18T22:01:48.713Z,53.20
2022-12-18T22:04:16.627Z,51.42
2022-12-18T22:06:43.342Z,44.85
2022-12-18T22:09:12.170Z,52.40
2022-12-18T22:11:39.034Z,44.83
2022-12-18T22:14:05.616Z,49.70
2022-12-18T22:16:32.104Z,44.33
2022-12-18T22:18:58.674Z,45.60
2022-12-18T22:21:30.957Z,44.63
2022-12-18T22:24:29.256Z,43.85
2022-12-18T22:27:02.151Z,45.00
2022-12-18T22:29:47.844Z,43.90
2022-12-18T22:32:30.582Z,43.75
2022-12-18T22:35:07.206Z,19.02
2022-12-18T22:37:35.891Z,45.00
2022-12-18T22:40:05.032Z,43.45
2022-12-18T22:42:32.618Z,42.22
2022-12-18T22:45:00.302Z,39.33
2022-12-18T22:47:30.021Z,47.33
2022-12-18T22:49:57.503Z,41.33
2022-12-18T22:52:25.074Z,22.08
2022-12-18T22:54:53.623Z,51.17
2022-12-18T22:57:21.642Z,35.22
2022-12-18T22:59:48.246Z,44.85
2022-12-18T23:02:14.856Z,46.22
2022-12-18T23:04:41.407Z,30.02
2022-12-18T23:07:07.832Z,44.38
2022-12-18T23:09:34.789Z,33.35
2022-12-18T23:12:01.619Z,39.08
2022-12-18T23:14:29.520Z,42.10
2022-12-18T23:16:56.432Z,38.92
2022-12-18T23:19:23.818Z,46.28
2022-12-18T23:21:50.747Z,45.80
2022-12-18T23:24:17.381Z,48.20
2022-12-18T23:26:43.847Z,33.40
2022-12-18T23:29:10.361Z,52.10
2022-12-18T23:31:38.922Z,21.10
2022-12-18T23:34:06.850Z,37.03
2022-12-18T23:36:34.598Z,39.10
2022-12-18T23:39:12.847Z,40.97
2022-12-18T23:41:50.856Z,27.02
2022-12-18T23:44:17.342Z,46.70
2022-12-18T23:46:43.843Z,47.50
2022-12-18T23:49:10.365Z,45.53
2022-12-18T23:51:39.496Z,48.65
2022-12-18T23:54:06.058Z,45.88
2022-12-18T23:56:35.621Z,45.30
2022-12-18T23:59:02.160Z,30.88
